sensor_id;sensor_type;location;lat;lon;timestamp;P1;durP1;ratioP1;P2;durP2;ratioP2
55537;SDS011;41383;51.418;7.286;2023-03-26T00:00:43;13.38;;;3.67;;
55537;SDS011;41383;51.418;7.286;2023-03-26T00:03:10;7.65;;;2.70;;
55537;SDS011;41383;51.418;7.286;2023-03-26T00:05:39;12.07;;;2.38;;
55537;SDS011;41383;51.418;7.286;2023-03-26T00:08:05;12.38;;;4.97;;
55537;SDS011;41383;51.418;7.286;2023-03-26T00:10:32;13.90;;;4.25;;
55537;SDS011;41383;51.418;7.286;2023-03-26T00:12:58;11.57;;;2.78;;
55537;SDS011;41383;51.418;7.286;2023-03-26T00:15:24;12.70;;;2.73;;
55537;SDS011;41383;51.418;7.286;2023-03-26T00:17:49;13.45;;;2.90;;
55537;SDS011;41383;51.418;7.286;2023-03-26T00:20:14;16.57;;;2.77;;
55537;SDS011;41383;51.418;7.286;2023-03-26T00:22:40;7.40;;;2.08;;
55537;SDS011;41383;51.418;7.286;2023-03-26T00:25:05;7.55;;;3.40;;
55537;SDS011;41383;51.418;7.286;2023-03-26T00:27:31;9.35;;;3.03;;
55537;SDS011;41383;51.418;7.286;2023-03-26T00:29:57;12.15;;;3.35;;
55537;SDS011;41383;51.418;7.286;2023-03-26T00:32:24;11.88;;;3.38;;
55537;SDS011;41383;51.418;7.286;2023-03-26T00:34:52;12.77;;;2.88;;
55537;SDS011;41383;51.418;7.286;2023-03-26T00:37:19;11.57;;;3.80;;
55537;SDS011;41383;51.418;7.286;2023-03-26T00:39:50;11.95;;;3.85;;
55537;SDS011;41383;51.418;7.286;2023-03-26T00:42:19;13.55;;;3.00;;
55537;SDS011;41383;51.418;7.286;2023-03-26T00:44:44;12.52;;;2.75;;
55537;SDS011;41383;51.418;7.286;2023-03-26T00:47:10;26.70;;;4.97;;
55537;SDS011;41383;51.418;7.286;2023-03-26T00:49:35;13.97;;;3.87;;
55537;SDS011;41383;51.418;7.286;2023-03-26T00:52:00;28.73;;;4.50;;
55537;SDS011;41383;51.418;7.286;2023-03-26T00:54:27;17.80;;;3.38;;
55537;SDS011;41383;51.418;7.286;2023-03-26T00:56:52;9.60;;;2.65;;
55537;SDS011;41383;51.418;7.286;2023-03-26T00:59:20;13.35;;;4.50;;
55537;SDS011;41383;51.418;7.286;2023-03-26T01:01:46;20.35;;;4.90;;
55537;SDS011;41383;51.418;7.286;2023-03-26T01:06:54;18.30;;;4.32;;
55537;SDS011;41383;51.418;7.286;2023-03-26T01:09:24;12.30;;;4.63;;
55537;SDS011;41383;51.418;7.286;2023-03-26T01:11:56;11.52;;;3.35;;
55537;SDS011;41383;51.418;7.286;2023-03-26T01:14:24;15.45;;;5.70;;
55537;SDS011;41383;51.418;7.286;2023-03-26T01:22:16;25.95;;;4.82;;
55537;SDS011;41383;51.418;7.286;2023-03-26T01:24:44;46.28;;;7.53;;
55537;SDS011;41383;51.418;7.286;2023-03-26T01:43:44;14.55;;;4.38;;
55537;SDS011;41383;51.418;7.286;2023-03-26T01:46:10;27.00;;;4.53;;
55537;SDS011;41383;51.418;7.286;2023-03-26T01:48:39;34.78;;;7.25;;
55537;SDS011;41383;51.418;7.286;2023-03-26T01:51:06;11.25;;;3.95;;
55537;SDS011;41383;51.418;7.286;2023-03-26T01:53:34;14.52;;;4.28;;
55537;SDS011;41383;51.418;7.286;2023-03-26T02:01:44;32.20;;;5.38;;
55537;SDS011;41383;51.418;7.286;2023-03-26T02:07:25;21.55;;;3.97;;
55537;SDS011;41383;51.418;7.286;2023-03-26T02:09:59;14.77;;;4.00;;
55537;SDS011;41383;51.418;7.286;2023-03-26T02:12:30;19.45;;;4.43;;
55537;SDS011;41383;51.418;7.286;2023-03-26T02:14:57;19.92;;;4.05;;
55537;SDS011;41383;51.418;7.286;2023-03-26T02:17:24;15.00;;;5.18;;
55537;SDS011;41383;51.418;7.286;2023-03-26T02:19:50;15.27;;;4.28;;
55537;SDS011;41383;51.418;7.286;2023-03-26T02:22:15;15.97;;;4.73;;
55537;SDS011;41383;51.418;7.286;2023-03-26T02:24:41;20.92;;;5.45;;
55537;SDS011;41383;51.418;7.286;2023-03-26T02:27:07;26.63;;;5.45;;
55537;SDS011;41383;51.418;7.286;2023-03-26T02:29:36;25.23;;;6.22;;
55537;SDS011;41383;51.418;7.286;2023-03-26T02:32:04;16.77;;;3.28;;
55537;SDS011;41383;51.418;7.286;2023-03-26T02:34:30;16.83;;;5.35;;
55537;SDS011;41383;51.418;7.286;2023-03-26T02:36:56;20.30;;;4.43;;
55537;SDS011;41383;51.418;7.286;2023-03-26T02:39:22;18.73;;;4.07;;
55537;SDS011;41383;51.418;7.286;2023-03-26T02:41:48;34.47;;;6.25;;
55537;SDS011;41383;51.418;7.286;2023-03-26T02:44:13;13.65;;;3.92;;
55537;SDS011;41383;51.418;7.286;2023-03-26T02:46:38;16.23;;;4.45;;
55537;SDS011;41383;51.418;7.286;2023-03-26T02:49:04;20.33;;;5.18;;
55537;SDS011;41383;51.418;7.286;2023-03-26T02:51:29;21.63;;;6.60;;
55537;SDS011;41383;51.418;7.286;2023-03-26T02:53:59;17.63;;;4.35;;
55537;SDS011;41383;51.418;7.286;2023-03-26T02:56:25;12.35;;;3.72;;
55537;SDS011;41383;51.418;7.286;2023-03-26T02:58:50;14.02;;;4.00;;
55537;SDS011;41383;51.418;7.286;2023-03-26T03:01:15;34.72;;;5.40;;
55537;SDS011;41383;51.418;7.286;2023-03-26T03:03:42;18.63;;;4.20;;
55537;SDS011;41383;51.418;7.286;2023-03-26T03:06:07;19.02;;;5.80;;
55537;SDS011;41383;51.418;7.286;2023-03-26T03:08:33;19.52;;;4.90;;
55537;SDS011;41383;51.418;7.286;2023-03-26T03:10:59;21.15;;;5.30;;
55537;SDS011;41383;51.418;7.286;2023-03-26T03:13:31;12.73;;;4.15;;
55537;SDS011;41383;51.418;7.286;2023-03-26T03:15:57;14.00;;;3.13;;
55537;SDS011;41383;51.418;7.286;2023-03-26T03:18:22;13.95;;;4.22;;
55537;SDS011;41383;51.418;7.286;2023-03-26T03:20:47;16.87;;;3.83;;
55537;SDS011;41383;51.418;7.286;2023-03-26T03:23:13;15.95;;;3.47;;
55537;SDS011;41383;51.418;7.286;2023-03-26T03:25:39;33.03;;;6.22;;
55537;SDS011;41383;51.418;7.286;2023-03-26T03:28:05;17.50;;;5.07;;
55537;SDS011;41383;51.418;7.286;2023-03-26T03:30:30;22.23;;;3.70;;
55537;SDS011;41383;51.418;7.286;2023-03-26T03:32:56;17.73;;;3.30;;
55537;SDS011;41383;51.418;7.286;2023-03-26T03:35:22;19.73;;;4.50;;
55537;SDS011;41383;51.418;7.286;2023-03-26T03:37:48;16.15;;;4.30;;
55537;SDS011;41383;51.418;7.286;2023-03-26T03:40:13;20.83;;;4.75;;
55537;SDS011;41383;51.418;7.286;2023-03-26T03:42:38;17.52;;;3.15;;
55537;SDS011;41383;51.418;7.286;2023-03-26T03:45:04;14.30;;;4.37;;
55537;SDS011;41383;51.418;7.286;2023-03-26T03:47:30;18.65;;;3.78;;
55537;SDS011;41383;51.418;7.286;2023-03-26T03:49:56;12.40;;;3.03;;
55537;SDS011;41383;51.418;7.286;2023-03-26T03:52:24;11.35;;;3.20;;
55537;SDS011;41383;51.418;7.286;2023-03-26T03:54:49;16.02;;;3.97;;
55537;SDS011;41383;51.418;7.286;2023-03-26T03:57:15;12.23;;;3.40;;
55537;SDS011;41383;51.418;7.286;2023-03-26T03:59:43;21.05;;;5.65;;
55537;SDS011;41383;51.418;7.286;2023-03-26T04:02:08;13.02;;;3.65;;
55537;SDS011;41383;51.418;7.286;2023-03-26T04:04:34;19.73;;;3.78;;
55537;SDS011;41383;51.418;7.286;2023-03-26T04:07:01;17.65;;;4.30;;
55537;SDS011;41383;51.418;7.286;2023-03-26T04:09:27;14.82;;;3.05;;
55537;SDS011;41383;51.418;7.286;2023-03-26T04:11:52;9.97;;;2.83;;
55537;SDS011;41383;51.418;7.286;2023-03-26T04:14:17;26.20;;;3.93;;
55537;SDS011;41383;51.418;7.286;2023-03-26T04:16:42;17.10;;;4.47;;
55537;SDS011;41383;51.418;7.286;2023-03-26T04:19:08;21.17;;;5.13;;
55537;SDS011;41383;51.418;7.286;2023-03-26T04:21:33;14.70;;;3.40;;
55537;SDS011;41383;51.418;7.286;2023-03-26T04:24:01;13.20;;;3.47;;
55537;SDS011;41383;51.418;7.286;2023-03-26T04:26:27;12.07;;;3.42;;
55537;SDS011;41383;51.418;7.286;2023-03-26T04:28:55;13.13;;;3.60;;
55537;SDS011;41383;51.418;7.286;2023-03-26T04:31:25;9.85;;;2.60;;
55537;SDS011;41383;51.418;7.286;2023-03-26T04:33:55;28.85;;;4.55;;
55537;SDS011;41383;51.418;7.286;2023-03-26T04:36:29;17.90;;;5.22;;
55537;SDS011;41383;51.418;7.286;2023-03-26T04:38:57;21.33;;;3.75;;
55537;SDS011;41383;51.418;7.286;2023-03-26T04:41:27;10.15;;;3.40;;
55537;SDS011;41383;51.418;7.286;2023-03-26T04:43:53;12.20;;;3.35;;
55537;SDS011;41383;51.418;7.286;2023-03-26T04:46:19;9.63;;;3.35;;
55537;SDS011;41383;51.418;7.286;2023-03-26T04:48:50;8.52;;;2.45;;
55537;SDS011;41383;51.418;7.286;2023-03-26T04:51:17;25.35;;;5.25;;
55537;SDS011;41383;51.418;7.286;2023-03-26T04:53:53;16.85;;;3.78;;
55537;SDS011;41383;51.418;7.286;2023-03-26T04:59:03;12.48;;;2.70;;
55537;SDS011;41383;51.418;7.286;2023-03-26T05:01:29;13.55;;;3.40;;
55537;SDS011;41383;51.418;7.286;2023-03-26T05:03:54;21.95;;;4.40;;
55537;SDS011;41383;51.418;7.286;2023-03-26T05:06:22;14.65;;;3.65;;
55537;SDS011;41383;51.418;7.286;2023-03-26T05:08:49;12.60;;;2.95;;
55537;SDS011;41383;51.418;7.286;2023-03-26T05:11:15;18.67;;;5.10;;
55537;SDS011;41383;51.418;7.286;2023-03-26T05:13:40;14.10;;;4.87;;
55537;SDS011;41383;51.418;7.286;2023-03-26T05:16:07;8.23;;;2.53;;
55537;SDS011;41383;51.418;7.286;2023-03-26T05:18:35;13.52;;;2.53;;
55537;SDS011;41383;51.418;7.286;2023-03-26T05:21:00;13.57;;;2.90;;
55537;SDS011;41383;51.418;7.286;2023-03-26T05:23:25;15.60;;;3.13;;
55537;SDS011;41383;51.418;7.286;2023-03-26T05:25:51;10.13;;;4.80;;
55537;SDS011;41383;51.418;7.286;2023-03-26T05:28:16;12.95;;;3.85;;
55537;SDS011;41383;51.418;7.286;2023-03-26T05:30:44;9.45;;;2.63;;
55537;SDS011;41383;51.418;7.286;2023-03-26T05:33:10;11.43;;;2.47;;
55537;SDS011;41383;51.418;7.286;2023-03-26T05:35:35;11.13;;;3.13;;
55537;SDS011;41383;51.418;7.286;2023-03-26T05:38:01;19.48;;;3.55;;
55537;SDS011;41383;51.418;7.286;2023-03-26T05:40:26;11.52;;;2.88;;
55537;SDS011;41383;51.418;7.286;2023-03-26T05:42:52;7.13;;;2.40;;
55537;SDS011;41383;51.418;7.286;2023-03-26T05:45:17;9.82;;;3.42;;
55537;SDS011;41383;51.418;7.286;2023-03-26T05:47:42;13.32;;;3.78;;
55537;SDS011;41383;51.418;7.286;2023-03-26T05:50:08;12.82;;;2.88;;
55537;SDS011;41383;51.418;7.286;2023-03-26T05:52:34;20.25;;;3.17;;
55537;SDS011;41383;51.418;7.286;2023-03-26T05:55:00;9.18;;;3.15;;
55537;SDS011;41383;51.418;7.286;2023-03-26T05:57:28;9.98;;;3.30;;
55537;SDS011;41383;51.418;7.286;2023-03-26T05:59:54;20.35;;;3.17;;
55537;SDS011;41383;51.418;7.286;2023-03-26T06:02:20;10.23;;;2.58;;
55537;SDS011;41383;51.418;7.286;2023-03-26T06:04:45;12.25;;;3.53;;
55537;SDS011;41383;51.418;7.286;2023-03-26T06:07:11;7.35;;;2.85;;
55537;SDS011;41383;51.418;7.286;2023-03-26T06:09:40;8.82;;;2.83;;
55537;SDS011;41383;51.418;7.286;2023-03-26T06:12:06;16.05;;;3.75;;
55537;SDS011;41383;51.418;7.286;2023-03-26T06:14:32;19.65;;;4.65;;
55537;SDS011;41383;51.418;7.286;2023-03-26T06:16:57;10.57;;;1.90;;
55537;SDS011;41383;51.418;7.286;2023-03-26T06:19:22;10.40;;;3.13;;
55537;SDS011;41383;51.418;7.286;2023-03-26T06:21:47;14.07;;;3.00;;
55537;SDS011;41383;51.418;7.286;2023-03-26T06:24:13;15.45;;;3.45;;
55537;SDS011;41383;51.418;7.286;2023-03-26T06:26:40;10.10;;;2.35;;
55537;SDS011;41383;51.418;7.286;2023-03-26T06:29:06;10.35;;;2.13;;
55537;SDS011;41383;51.418;7.286;2023-03-26T06:31:31;8.80;;;2.80;;
55537;SDS011;41383;51.418;7.286;2023-03-26T06:33:56;25.80;;;3.50;;
55537;SDS011;41383;51.418;7.286;2023-03-26T06:36:22;12.33;;;2.77;;
55537;SDS011;41383;51.418;7.286;2023-03-26T06:38:47;13.27;;;3.92;;
55537;SDS011;41383;51.418;7.286;2023-03-26T06:41:12;10.43;;;2.67;;
55537;SDS011;41383;51.418;7.286;2023-03-26T06:43:38;10.35;;;2.80;;
55537;SDS011;41383;51.418;7.286;2023-03-26T06:46:03;17.27;;;2.72;;
55537;SDS011;41383;51.418;7.286;2023-03-26T06:48:28;9.43;;;2.30;;
55537;SDS011;41383;51.418;7.286;2023-03-26T06:50:54;8.90;;;3.47;;
55537;SDS011;41383;51.418;7.286;2023-03-26T06:53:19;12.60;;;3.78;;
55537;SDS011;41383;51.418;7.286;2023-03-26T06:55:45;14.82;;;4.63;;
55537;SDS011;41383;51.418;7.286;2023-03-26T06:58:11;9.45;;;2.33;;
55537;SDS011;41383;51.418;7.286;2023-03-26T07:00:37;10.30;;;3.20;;
55537;SDS011;41383;51.418;7.286;2023-03-26T07:03:03;8.68;;;2.28;;
55537;SDS011;41383;51.418;7.286;2023-03-26T07:05:28;12.27;;;2.15;;
55537;SDS011;41383;51.418;7.286;2023-03-26T07:07:54;10.02;;;3.17;;
55537;SDS011;41383;51.418;7.286;2023-03-26T07:10:19;15.47;;;2.70;;
55537;SDS011;41383;51.418;7.286;2023-03-26T07:12:44;16.52;;;3.53;;
55537;SDS011;41383;51.418;7.286;2023-03-26T07:15:10;15.25;;;3.58;;
55537;SDS011;41383;51.418;7.286;2023-03-26T07:17:35;11.57;;;2.92;;
55537;SDS011;41383;51.418;7.286;2023-03-26T07:20:01;19.77;;;5.18;;
55537;SDS011;41383;51.418;7.286;2023-03-26T07:22:28;9.32;;;2.75;;
55537;SDS011;41383;51.418;7.286;2023-03-26T07:24:53;19.08;;;4.60;;
55537;SDS011;41383;51.418;7.286;2023-03-26T07:30:28;11.10;;;3.08;;
55537;SDS011;41383;51.418;7.286;2023-03-26T07:32:59;12.05;;;2.55;;
55537;SDS011;41383;51.418;7.286;2023-03-26T07:35:40;8.55;;;3.00;;
55537;SDS011;41383;51.418;7.286;2023-03-26T07:46:49;17.05;;;4.50;;
55537;SDS011;41383;51.418;7.286;2023-03-26T07:49:17;13.55;;;2.83;;
55537;SDS011;41383;51.418;7.286;2023-03-26T07:51:44;12.60;;;4.32;;
55537;SDS011;41383;51.418;7.286;2023-03-26T07:54:10;10.65;;;2.75;;
55537;SDS011;41383;51.418;7.286;2023-03-26T07:56:48;7.63;;;1.98;;
55537;SDS011;41383;51.418;7.286;2023-03-26T07:59:27;11.25;;;2.65;;
55537;SDS011;41383;51.418;7.286;2023-03-26T08:04:48;9.55;;;2.50;;
55537;SDS011;41383;51.418;7.286;2023-03-26T08:07:25;7.88;;;2.00;;
55537;SDS011;41383;51.418;7.286;2023-03-26T08:10:06;10.20;;;2.08;;
55537;SDS011;41383;51.418;7.286;2023-03-26T08:15:37;7.85;;;2.38;;
55537;SDS011;41383;51.418;7.286;2023-03-26T08:20:58;15.95;;;3.63;;
55537;SDS011;41383;51.418;7.286;2023-03-26T08:26:29;6.95;;;1.80;;
55537;SDS011;41383;51.418;7.286;2023-03-26T08:29:09;7.80;;;2.58;;
55537;SDS011;41383;51.418;7.286;2023-03-26T08:31:45;12.40;;;4.40;;
55537;SDS011;41383;51.418;7.286;2023-03-26T08:34:13;13.57;;;4.25;;
55537;SDS011;41383;51.418;7.286;2023-03-26T08:36:38;9.93;;;2.75;;
55537;SDS011;41383;51.418;7.286;2023-03-26T08:39:04;10.73;;;2.75;;
55537;SDS011;41383;51.418;7.286;2023-03-26T08:41:42;8.93;;;2.60;;
55537;SDS011;41383;51.418;7.286;2023-03-26T08:44:25;9.55;;;2.72;;
55537;SDS011;41383;51.418;7.286;2023-03-26T08:50:22;6.68;;;2.60;;
55537;SDS011;41383;51.418;7.286;2023-03-26T08:55:42;10.57;;;2.85;;
55537;SDS011;41383;51.418;7.286;2023-03-26T09:10:03;8.85;;;2.35;;
55537;SDS011;41383;51.418;7.286;2023-03-26T09:26:58;8.70;;;1.67;;
55537;SDS011;41383;51.418;7.286;2023-03-26T09:32:04;8.80;;;2.33;;
55537;SDS011;41383;51.418;7.286;2023-03-26T09:37:27;6.22;;;2.75;;
55537;SDS011;41383;51.418;7.286;2023-03-26T09:40:17;6.28;;;2.35;;
55537;SDS011;41383;51.418;7.286;2023-03-26T09:42:52;14.43;;;2.13;;
55537;SDS011;41383;51.418;7.286;2023-03-26T09:48:19;7.72;;;2.35;;
55537;SDS011;41383;51.418;7.286;2023-03-26T10:19:05;2.72;;;0.80;;
55537;SDS011;41383;51.418;7.286;2023-03-26T10:21:54;6.20;;;1.38;;
55537;SDS011;41383;51.418;7.286;2023-03-26T10:30:27;6.07;;;2.05;;
55537;SDS011;41383;51.418;7.286;2023-03-26T10:46:58;4.45;;;2.75;;
55537;SDS011;41383;51.418;7.286;2023-03-26T10:52:11;2.75;;;1.67;;
55537;SDS011;41383;51.418;7.286;2023-03-26T10:54:47;3.92;;;2.22;;
55537;SDS011;41383;51.418;7.286;2023-03-26T10:57:28;1.80;;;0.82;;
55537;SDS011;41383;51.418;7.286;2023-03-26T11:00:15;2.63;;;1.30;;
55537;SDS011;41383;51.418;7.286;2023-03-26T11:05:58;2.90;;;1.52;;
55537;SDS011;41383;51.418;7.286;2023-03-26T11:08:36;4.68;;;1.08;;
55537;SDS011;41383;51.418;7.286;2023-03-26T11:14:03;12.05;;;4.07;;
55537;SDS011;41383;51.418;7.286;2023-03-26T11:21:55;8.43;;;5.30;;
55537;SDS011;41383;51.418;7.286;2023-03-26T11:30:20;1.67;;;0.50;;
55537;SDS011;41383;51.418;7.286;2023-03-26T11:32:52;2.95;;;0.70;;
55537;SDS011;41383;51.418;7.286;2023-03-26T11:35:24;2.55;;;0.68;;
55537;SDS011;41383;51.418;7.286;2023-03-26T11:37:57;2.70;;;1.23;;
55537;SDS011;41383;51.418;7.286;2023-03-26T11:40:35;3.20;;;1.88;;
55537;SDS011;41383;51.418;7.286;2023-03-26T11:43:06;1.88;;;0.70;;
55537;SDS011;41383;51.418;7.286;2023-03-26T11:45:34;4.72;;;1.27;;
55537;SDS011;41383;51.418;7.286;2023-03-26T11:48:07;2.00;;;0.88;;
55537;SDS011;41383;51.418;7.286;2023-03-26T11:50:46;2.45;;;0.82;;
55537;SDS011;41383;51.418;7.286;2023-03-26T11:53:16;1.75;;;0.40;;
55537;SDS011;41383;51.418;7.286;2023-03-26T11:55:47;0.93;;;0.30;;
55537;SDS011;41383;51.418;7.286;2023-03-26T11:58:29;0.73;;;0.30;;
55537;SDS011;41383;51.418;7.286;2023-03-26T12:01:02;2.83;;;0.60;;
55537;SDS011;41383;51.418;7.286;2023-03-26T12:03:36;3.63;;;0.93;;
55537;SDS011;41383;51.418;7.286;2023-03-26T12:06:02;1.38;;;0.30;;
55537;SDS011;41383;51.418;7.286;2023-03-26T12:08:32;1.65;;;0.68;;
55537;SDS011;41383;51.418;7.286;2023-03-26T12:11:09;2.28;;;0.60;;
55537;SDS011;41383;51.418;7.286;2023-03-26T12:16:14;3.38;;;0.80;;
55537;SDS011;41383;51.418;7.286;2023-03-26T12:18:41;3.17;;;0.52;;
55537;SDS011;41383;51.418;7.286;2023-03-26T12:21:16;1.17;;;0.80;;
55537;SDS011;41383;51.418;7.286;2023-03-26T12:23:53;0.93;;;0.43;;
55537;SDS011;41383;51.418;7.286;2023-03-26T12:26:38;1.65;;;0.57;;
55537;SDS011;41383;51.418;7.286;2023-03-26T12:29:16;0.82;;;0.38;;
55537;SDS011;41383;51.418;7.286;2023-03-26T12:34:32;0.95;;;0.40;;
55537;SDS011;41383;51.418;7.286;2023-03-26T12:37:00;0.68;;;0.30;;
55537;SDS011;41383;51.418;7.286;2023-03-26T12:39:45;1.70;;;0.43;;
55537;SDS011;41383;51.418;7.286;2023-03-26T12:42:23;1.20;;;0.28;;
55537;SDS011;41383;51.418;7.286;2023-03-26T12:44:56;1.33;;;0.52;;
55537;SDS011;41383;51.418;7.286;2023-03-26T12:47:29;2.13;;;0.40;;
55537;SDS011;41383;51.418;7.286;2023-03-26T12:49:56;0.95;;;0.63;;
55537;SDS011;41383;51.418;7.286;2023-03-26T12:55:06;0.80;;;0.20;;
55537;SDS011;41383;51.418;7.286;2023-03-26T13:09:19;2.65;;;0.55;;
55537;SDS011;41383;51.418;7.286;2023-03-26T13:12:27;3.47;;;0.20;;
55537;SDS011;41383;51.418;7.286;2023-03-26T13:17:59;4.53;;;0.40;;
55537;SDS011;41383;51.418;7.286;2023-03-26T13:23:37;5.38;;;1.05;;
55537;SDS011;41383;51.418;7.286;2023-03-26T13:28:59;2.75;;;1.38;;
55537;SDS011;41383;51.418;7.286;2023-03-26T13:34:35;2.38;;;1.10;;
55537;SDS011;41383;51.418;7.286;2023-03-26T13:37:11;0.82;;;0.25;;
55537;SDS011;41383;51.418;7.286;2023-03-26T13:42:44;3.78;;;0.30;;
55537;SDS011;41383;51.418;7.286;2023-03-26T13:45:26;2.65;;;0.40;;
55537;SDS011;41383;51.418;7.286;2023-03-26T13:48:02;3.58;;;1.30;;
55537;SDS011;41383;51.418;7.286;2023-03-26T13:50:36;1.75;;;0.50;;
55537;SDS011;41383;51.418;7.286;2023-03-26T13:53:05;1.55;;;0.70;;
55537;SDS011;41383;51.418;7.286;2023-03-26T13:55:37;1.05;;;0.40;;
55537;SDS011;41383;51.418;7.286;2023-03-26T13:58:11;1.63;;;0.55;;
55537;SDS011;41383;51.418;7.286;2023-03-26T14:06:06;4.00;;;1.08;;
55537;SDS011;41383;51.418;7.286;2023-03-26T14:08:40;3.80;;;1.55;;
55537;SDS011;41383;51.418;7.286;2023-03-26T14:11:19;2.28;;;0.80;;
55537;SDS011;41383;51.418;7.286;2023-03-26T14:14:02;1.70;;;0.50;;
55537;SDS011;41383;51.418;7.286;2023-03-26T14:16:45;2.22;;;0.85;;
55537;SDS011;41383;51.418;7.286;2023-03-26T14:27:08;3.45;;;1.08;;
55537;SDS011;41383;51.418;7.286;2023-03-26T14:32:52;3.75;;;1.30;;
55537;SDS011;41383;51.418;7.286;2023-03-26T14:35:40;2.65;;;0.98;;
55537;SDS011;41383;51.418;7.286;2023-03-26T14:41:21;2.08;;;1.10;;
55537;SDS011;41383;51.418;7.286;2023-03-26T14:43:59;2.47;;;1.75;;
55537;SDS011;41383;51.418;7.286;2023-03-26T15:37:23;3.88;;;1.98;;
55537;SDS011;41383;51.418;7.286;2023-03-26T15:51:43;2.65;;;1.13;;
55537;SDS011;41383;51.418;7.286;2023-03-26T15:56:59;2.60;;;0.90;;
55537;SDS011;41383;51.418;7.286;2023-03-26T16:02:41;1.95;;;1.02;;
55537;SDS011;41383;51.418;7.286;2023-03-26T16:08:47;3.47;;;1.80;;
55537;SDS011;41383;51.418;7.286;2023-03-26T16:10:56;3.10;;;1.33;;
55537;SDS011;41383;51.418;7.286;2023-03-26T16:13:37;5.00;;;2.03;;
55537;SDS011;41383;51.418;7.286;2023-03-26T16:16:46;4.22;;;1.83;;
55537;SDS011;41383;51.418;7.286;2023-03-26T16:22:00;4.65;;;2.33;;
55537;SDS011;41383;51.418;7.286;2023-03-26T16:24:39;5.35;;;2.38;;
55537;SDS011;41383;51.418;7.286;2023-03-26T16:32:43;4.22;;;1.50;;
55537;SDS011;41383;51.418;7.286;2023-03-26T16:37:47;3.93;;;1.33;;
55537;SDS011;41383;51.418;7.286;2023-03-26T16:51:03;11.90;;;3.15;;
55537;SDS011;41383;51.418;7.286;2023-03-26T16:54:03;6.63;;;2.50;;
55537;SDS011;41383;51.418;7.286;2023-03-26T16:56:59;12.30;;;4.80;;
55537;SDS011;41383;51.418;7.286;2023-03-26T17:02:22;9.38;;;4.15;;
55537;SDS011;41383;51.418;7.286;2023-03-26T17:04:58;10.05;;;3.78;;
55537;SDS011;41383;51.418;7.286;2023-03-26T17:07:45;11.95;;;5.00;;
55537;SDS011;41383;51.418;7.286;2023-03-26T17:13:14;15.55;;;6.15;;
55537;SDS011;41383;51.418;7.286;2023-03-26T17:18:54;24.55;;;4.72;;
55537;SDS011;41383;51.418;7.286;2023-03-26T17:26:54;12.20;;;4.50;;
55537;SDS011;41383;51.418;7.286;2023-03-26T17:29:56;13.05;;;4.30;;
55537;SDS011;41383;51.418;7.286;2023-03-26T17:33:43;9.73;;;3.78;;
55537;SDS011;41383;51.418;7.286;2023-03-26T17:35:43;21.58;;;4.35;;
55537;SDS011;41383;51.418;7.286;2023-03-26T17:40:43;21.50;;;5.47;;
55537;SDS011;41383;51.418;7.286;2023-03-26T17:43:32;15.23;;;6.68;;
55537;SDS011;41383;51.418;7.286;2023-03-26T17:46:16;22.83;;;8.95;;
55537;SDS011;41383;51.418;7.286;2023-03-26T17:48:59;30.52;;;11.43;;
55537;SDS011;41383;51.418;7.286;2023-03-26T17:51:45;12.52;;;4.53;;
55537;SDS011;41383;51.418;7.286;2023-03-26T17:57:01;14.52;;;3.30;;
55537;SDS011;41383;51.418;7.286;2023-03-26T17:59:33;10.82;;;4.70;;
55537;SDS011;41383;51.418;7.286;2023-03-26T18:02:01;17.77;;;4.65;;
55537;SDS011;41383;51.418;7.286;2023-03-26T18:04:34;13.38;;;4.63;;
55537;SDS011;41383;51.418;7.286;2023-03-26T18:09:42;10.23;;;4.05;;
55537;SDS011;41383;51.418;7.286;2023-03-26T18:17:48;15.27;;;4.40;;
55537;SDS011;41383;51.418;7.286;2023-03-26T18:20:21;21.58;;;5.20;;
55537;SDS011;41383;51.418;7.286;2023-03-26T18:22:49;9.85;;;3.95;;
55537;SDS011;41383;51.418;7.286;2023-03-26T18:25:20;13.02;;;3.95;;
55537;SDS011;41383;51.418;7.286;2023-03-26T18:27:49;16.48;;;4.13;;
55537;SDS011;41383;51.418;7.286;2023-03-26T18:30:17;13.00;;;3.42;;
55537;SDS011;41383;51.418;7.286;2023-03-26T18:32:48;10.35;;;3.50;;
55537;SDS011;41383;51.418;7.286;2023-03-26T18:35:17;11.48;;;3.53;;
55537;SDS011;41383;51.418;7.286;2023-03-26T18:37:45;10.88;;;3.15;;
55537;SDS011;41383;51.418;7.286;2023-03-26T18:40:17;9.80;;;3.70;;
55537;SDS011;41383;51.418;7.286;2023-03-26T18:45:32;9.38;;;3.03;;
55537;SDS011;41383;51.418;7.286;2023-03-26T18:48:01;9.35;;;2.53;;
55537;SDS011;41383;51.418;7.286;2023-03-26T18:50:37;17.17;;;5.80;;
55537;SDS011;41383;51.418;7.286;2023-03-26T18:53:06;7.93;;;3.88;;
55537;SDS011;41383;51.418;7.286;2023-03-26T18:55:39;11.77;;;3.33;;
55537;SDS011;41383;51.418;7.286;2023-03-26T19:01:01;8.93;;;2.92;;
55537;SDS011;41383;51.418;7.286;2023-03-26T19:03:29;15.52;;;3.25;;
55537;SDS011;41383;51.418;7.286;2023-03-26T19:05:59;7.03;;;2.80;;
55537;SDS011;41383;51.418;7.286;2023-03-26T19:08:26;12.23;;;3.45;;
55537;SDS011;41383;51.418;7.286;2023-03-26T19:10:53;13.20;;;3.55;;
55537;SDS011;41383;51.418;7.286;2023-03-26T19:13:19;12.40;;;2.38;;
55537;SDS011;41383;51.418;7.286;2023-03-26T19:15:45;13.90;;;3.00;;
55537;SDS011;41383;51.418;7.286;2023-03-26T19:18:15;31.02;;;5.18;;
55537;SDS011;41383;51.418;7.286;2023-03-26T19:20:44;13.95;;;3.05;;
55537;SDS011;41383;51.418;7.286;2023-03-26T19:23:17;7.70;;;3.10;;
55537;SDS011;41383;51.418;7.286;2023-03-26T19:25:46;11.85;;;2.90;;
55537;SDS011;41383;51.418;7.286;2023-03-26T19:30:56;13.25;;;4.45;;
55537;SDS011;41383;51.418;7.286;2023-03-26T19:33:34;8.55;;;2.72;;
55537;SDS011;41383;51.418;7.286;2023-03-26T19:36:13;8.75;;;3.38;;
55537;SDS011;41383;51.418;7.286;2023-03-26T19:38:48;10.43;;;3.17;;
55537;SDS011;41383;51.418;7.286;2023-03-26T19:43:51;7.65;;;2.20;;
55537;SDS011;41383;51.418;7.286;2023-03-26T19:46:19;16.30;;;4.30;;
55537;SDS011;41383;51.418;7.286;2023-03-26T19:48:46;6.95;;;3.30;;
55537;SDS011;41383;51.418;7.286;2023-03-26T19:51:21;12.45;;;3.38;;
55537;SDS011;41383;51.418;7.286;2023-03-26T19:53:55;6.32;;;2.03;;
55537;SDS011;41383;51.418;7.286;2023-03-26T19:56:22;12.60;;;2.92;;
55537;SDS011;41383;51.418;7.286;2023-03-26T19:58:48;14.15;;;4.57;;
55537;SDS011;41383;51.418;7.286;2023-03-26T20:01:18;9.38;;;2.15;;
55537;SDS011;41383;51.418;7.286;2023-03-26T20:03:45;11.10;;;3.70;;
55537;SDS011;41383;51.418;7.286;2023-03-26T20:06:16;5.90;;;2.40;;
55537;SDS011;41383;51.418;7.286;2023-03-26T20:08:43;8.32;;;1.98;;
55537;SDS011;41383;51.418;7.286;2023-03-26T20:11:13;6.00;;;2.30;;
55537;SDS011;41383;51.418;7.286;2023-03-26T20:13:42;6.20;;;1.98;;
55537;SDS011;41383;51.418;7.286;2023-03-26T20:18:53;23.05;;;3.03;;
55537;SDS011;41383;51.418;7.286;2023-03-26T20:21:22;26.45;;;3.13;;
55537;SDS011;41383;51.418;7.286;2023-03-26T20:23:49;6.88;;;2.13;;
55537;SDS011;41383;51.418;7.286;2023-03-26T20:26:17;14.77;;;2.70;;
55537;SDS011;41383;51.418;7.286;2023-03-26T20:28:43;6.97;;;1.70;;
55537;SDS011;41383;51.418;7.286;2023-03-26T20:31:13;9.80;;;2.38;;
55537;SDS011;41383;51.418;7.286;2023-03-26T20:33:40;7.28;;;1.77;;
55537;SDS011;41383;51.418;7.286;2023-03-26T20:36:07;8.65;;;2.15;;
55537;SDS011;41383;51.418;7.286;2023-03-26T20:38:35;9.07;;;2.85;;
55537;SDS011;41383;51.418;7.286;2023-03-26T20:41:00;13.50;;;3.00;;
55537;SDS011;41383;51.418;7.286;2023-03-26T20:43:26;6.85;;;2.00;;
55537;SDS011;41383;51.418;7.286;2023-03-26T20:45:54;9.38;;;1.75;;
55537;SDS011;41383;51.418;7.286;2023-03-26T20:48:21;8.25;;;2.17;;
55537;SDS011;41383;51.418;7.286;2023-03-26T20:50:46;10.15;;;1.67;;
55537;SDS011;41383;51.418;7.286;2023-03-26T20:53:12;14.70;;;3.23;;
55537;SDS011;41383;51.418;7.286;2023-03-26T20:55:40;7.30;;;1.67;;